sensor_id;sensor_type;location;lat;lon;timestamp;pressure;altitude;pressure_sealevel;temperature;humidity
53619;BME280;39505;53.040;18.488;2023-02-10T00:00:09;102643.78;;;-2.47;100.00
53619;BME280;39505;53.040;18.488;2023-02-10T00:00:38;102642.00;;;-2.48;100.00
53619;BME280;39505;53.040;18.488;2023-02-10T00:01:10;102643.75;;;-2.49;100.00
53619;BME280;39505;53.040;18.488;2023-02-10T00:01:24;102639.38;;;-2.47;100.00
53619;BME280;39505;53.040;18.488;2023-02-10T00:01:37;102644.63;;;-2.47;100.00
53619;BME280;39505;53.040;18.488;2023-02-10T00:01:50;102644.63;;;-2.47;100.00
53619;BME280;39505;53.040;18.488;2023-02-10T00:02:03;102641.16;;;-2.47;100.00
53619;BME280;39505;53.040;18.488;2023-02-10T00:02:16;102642.91;;;-2.48;100.00
53619;BME280;39505;53.040;18.488;2023-02-10T00:02:29;102637.66;;;-2.48;100.00
53619;BME280;39505;53.040;18.488;2023-02-10T00:02:42;102637.66;;;-2.48;100.00
53619;BME280;39505;53.040;18.488;2023-02-10T00:02:55;102637.66;;;-2.48;100.00
53619;BME280;39505;53.040;18.488;2023-02-10T00:03:08;102639.38;;;-2.47;100.00
53619;BME280;39505;53.040;18.488;2023-02-10T00:03:20;102638.53;;;-2.46;100.00
53619;BME280;39505;53.040;18.488;2023-02-10T00:03:34;102638.53;;;-2.46;100.00
53619;BME280;39505;53.040;18.488;2023-02-10T00:03:48;102631.50;;;-2.48;100.00
53619;BME280;39505;53.040;18.488;2023-02-10T00:04:01;102638.53;;;-2.46;100.00
53619;BME280;39505;53.040;18.488;2023-02-10T00:04:14;102642.03;;;-2.45;100.00
53619;BME280;39505;53.040;18.488;2023-02-10T00:04:27;102635.91;;;-2.46;100.00
53619;BME280;39505;53.040;18.488;2023-02-10T00:04:40;102637.63;;;-2.45;100.00
53619;BME280;39505;53.040;18.488;2023-02-10T00:04:53;102635.91;;;-2.46;100.00
53619;BME280;39505;53.040;18.488;2023-02-10T00:05:06;102627.13;;;-2.45;100.00
53619;BME280;39505;53.040;18.488;2023-02-10T00:05:19;102649.91;;;-2.44;100.00
53619;BME280;39505;53.040;18.488;2023-02-10T00:05:32;102635.91;;;-2.46;100.00
53619;BME280;39505;53.040;18.488;2023-02-10T00:05:44;102639.41;;;-2.44;100.00
53619;BME280;39505;53.040;18.488;2023-02-10T00:05:58;102637.66;;;-2.48;100.00
53619;BME280;39505;53.040;18.488;2023-02-10T00:06:13;102638.50;;;-2.44;100.00
53619;BME280;39505;53.040;18.488;2023-02-10T00:06:27;102639.41;;;-2.44;100.00
53619;BME280;39505;53.040;18.488;2023-02-10T00:06:40;102637.63;;;-2.45;100.00
53619;BME280;39505;53.040;18.488;2023-02-10T00:06:53;102642.03;;;-2.44;100.00
53619;BME280;39505;53.040;18.488;2023-02-10T00:07:06;102640.25;;;-2.43;100.00
53619;BME280;39505;53.040;18.488;2023-02-10T00:07:18;102635.88;;;-2.43;100.00
53619;BME280;39505;53.040;18.488;2023-02-10T00:07:31;102638.50;;;-2.43;100.00
53619;BME280;39505;53.040;18.488;2023-02-10T00:07:46;102646.38;;;-2.43;100.00
53619;BME280;39505;53.040;18.488;2023-02-10T00:07:59;102643.75;;;-2.41;100.00
53619;BME280;39505;53.040;18.488;2023-02-10T00:08:11;102642.00;;;-2.42;100.00
53619;BME280;39505;53.040;18.488;2023-02-10T00:08:24;102643.75;;;-2.43;100.00
53619;BME280;39505;53.040;18.488;2023-02-10T00:08:38;102642.91;;;-2.42;100.00
53619;BME280;39505;53.040;18.488;2023-02-10T00:08:52;102643.75;;;-2.41;100.00
53619;BME280;39505;53.040;18.488;2023-02-10T00:09:06;102642.00;;;-2.41;100.00
53619;BME280;39505;53.040;18.488;2023-02-10T00:09:20;102646.38;;;-2.40;100.00
53619;BME280;39505;53.040;18.488;2023-02-10T00:09:33;102642.88;;;-2.40;100.00
53619;BME280;39505;53.040;18.488;2023-02-10T00:09:46;102642.88;;;-2.39;100.00
53619;BME280;39505;53.040;18.488;2023-02-10T00:10:00;102643.75;;;-2.38;100.00
53619;BME280;39505;53.040;18.488;2023-02-10T00:10:13;102642.88;;;-2.39;100.00
53619;BME280;39505;53.040;18.488;2023-02-10T00:10:25;102641.09;;;-2.40;100.00
53619;BME280;39505;53.040;18.488;2023-02-10T00:10:39;102642.88;;;-2.39;100.00
53619;BME280;39505;53.040;18.488;2023-02-10T00:10:56;102640.25;;;-2.39;100.00
53619;BME280;39505;53.040;18.488;2023-02-10T00:11:10;102645.50;;;-2.39;100.00
53619;BME280;39505;53.040;18.488;2023-02-10T00:11:24;102639.38;;;-2.41;100.00
53619;BME280;39505;53.040;18.488;2023-02-10T00:11:52;102635.88;;;-2.38;100.00
53619;BME280;39505;53.040;18.488;2023-02-10T00:12:12;102641.13;;;-2.37;100.00
53619;BME280;39505;53.040;18.488;2023-02-10T00:12:25;102634.13;;;-2.39;100.00
53619;BME280;39505;53.040;18.488;2023-02-10T00:12:39;102637.63;;;-2.37;100.00
53619;BME280;39505;53.040;18.488;2023-02-10T00:12:52;102629.75;;;-2.37;100.00
53619;BME280;39505;53.040;18.488;2023-02-10T00:13:04;102636.72;;;-2.36;100.00
53619;BME280;39505;53.040;18.488;2023-02-10T00:13:17;102637.59;;;-2.36;100.00
53619;BME280;39505;53.040;18.488;2023-02-10T00:13:33;102628.84;;;-2.38;100.00
53619;BME280;39505;53.040;18.488;2023-02-10T00:13:46;102634.13;;;-2.35;100.00
53619;BME280;39505;53.040;18.488;2023-02-10T00:13:59;102633.25;;;-2.35;100.00
53619;BME280;39505;53.040;18.488;2023-02-10T00:14:13;102639.38;;;-2.35;100.00
53619;BME280;39505;53.040;18.488;2023-02-10T00:14:28;102634.13;;;-2.35;100.00
53619;BME280;39505;53.040;18.488;2023-02-10T00:14:41;102627.09;;;-2.36;100.00
53619;BME280;39505;53.040;18.488;2023-02-10T00:14:54;102631.50;;;-2.33;100.00
53619;BME280;39505;53.040;18.488;2023-02-10T00:15:08;102640.25;;;-2.33;100.00
53619;BME280;39505;53.040;18.488;2023-02-10T00:15:20;102622.72;;;-2.37;100.00
53619;BME280;39505;53.040;18.488;2023-02-10T00:15:33;102634.97;;;-2.31;100.00
53619;BME280;39505;53.040;18.488;2023-02-10T00:15:47;102633.22;;;-2.32;100.00
53619;BME280;39505;53.040;18.488;2023-02-10T00:16:01;102624.47;;;-2.34;100.00
53619;BME280;39505;53.040;18.488;2023-02-10T00:16:15;102625.34;;;-2.34;100.00
53619;BME280;39505;53.040;18.488;2023-02-10T00:16:27;102624.44;;;-2.31;100.00
53619;BME280;39505;53.040;18.488;2023-02-10T00:16:40;102621.81;;;-2.31;100.00
53619;BME280;39505;53.040;18.488;2023-02-10T00:16:53;102628.84;;;-2.32;100.00
53619;BME280;39505;53.040;18.488;2023-02-10T00:17:07;102633.22;;;-2.31;100.00
53619;BME280;39505;53.040;18.488;2023-02-10T00:17:20;102628.84;;;-2.32;100.00
53619;BME280;39505;53.040;18.488;2023-02-10T00:17:33;102630.59;;;-2.31;100.00
53619;BME280;39505;53.040;18.488;2023-02-10T00:17:45;102628.84;;;-2.32;100.00
53619;BME280;39505;53.040;18.488;2023-02-10T00:17:58;102634.09;;;-2.32;100.00
53619;BME280;39505;53.040;18.488;2023-02-10T00:18:11;102634.97;;;-2.31;100.00
53619;BME280;39505;53.040;18.488;2023-02-10T00:18:24;102632.34;;;-2.29;100.00
53619;BME280;39505;53.040;18.488;2023-02-10T00:18:37;102633.19;;;-2.29;100.00
53619;BME280;39505;53.040;18.488;2023-02-10T00:18:51;102630.59;;;-2.31;100.00
53619;BME280;39505;53.040;18.488;2023-02-10T00:19:04;102627.09;;;-2.29;100.00
53619;BME280;39505;53.040;18.488;2023-02-10T00:19:17;102628.84;;;-2.30;100.00
53619;BME280;39505;53.040;18.488;2023-02-10T00:19:30;102634.09;;;-2.28;100.00
53619;BME280;39505;53.040;18.488;2023-02-10T00:19:44;102635.84;;;-2.27;100.00
53619;BME280;39505;53.040;18.488;2023-02-10T00:19:57;102635.84;;;-2.27;100.00
53619;BME280;39505;53.040;18.488;2023-02-10T00:20:10;102627.09;;;-2.29;100.00
53619;BME280;39505;53.040;18.488;2023-02-10T00:20:24;102629.72;;;-2.28;100.00
53619;BME280;39505;53.040;18.488;2023-02-10T00:20:36;102635.84;;;-2.27;100.00
53619;BME280;39505;53.040;18.488;2023-02-10T00:20:49;102631.44;;;-2.27;100.00
53619;BME280;39505;53.040;18.488;2023-02-10T00:21:06;102639.34;;;-2.25;100.00
53619;BME280;39505;53.040;18.488;2023-02-10T00:21:19;102625.34;;;-2.26;100.00
53619;BME280;39505;53.040;18.488;2023-02-10T00:21:32;102631.44;;;-2.25;100.00
53619;BME280;39505;53.040;18.488;2023-02-10T00:21:45;102634.06;;;-2.25;100.00
53619;BME280;39505;53.040;18.488;2023-02-10T00:21:59;102621.81;;;-2.29;100.00
53619;BME280;39505;53.040;18.488;2023-02-10T00:22:13;102628.81;;;-2.25;100.00
53619;BME280;39505;53.040;18.488;2023-02-10T00:22:25;102626.19;;;-2.27;100.00
53619;BME280;39505;53.040;18.488;2023-02-10T00:22:38;102626.19;;;-2.25;100.00
53619;BME280;39505;53.040;18.488;2023-02-10T00:22:53;102628.84;;;-2.24;100.00
53619;BME280;39505;53.040;18.488;2023-02-10T00:23:06;102627.94;;;-2.23;100.00
53619;BME280;39505;53.040;18.488;2023-02-10T00:23:19;102622.72;;;-2.24;100.00
53619;BME280;39505;53.040;18.488;2023-02-10T00:23:32;102629.69;;;-2.23;100.00
53619;BME280;39505;53.040;18.488;2023-02-10T00:23:45;102624.44;;;-2.23;100.00
53619;BME280;39505;53.040;18.488;2023-02-10T00:23:58;102628.84;;;-2.24;100.00
53619;BME280;39505;53.040;18.488;2023-02-10T00:24:10;102628.81;;;-2.22;100.00
53619;BME280;39505;53.040;18.488;2023-02-10T00:24:24;102628.81;;;-2.22;100.00
53619;BME280;39505;53.040;18.488;2023-02-10T00:24:37;102630.56;;;-2.23;100.00
53619;BME280;39505;53.040;18.488;2023-02-10T00:24:50;102627.06;;;-2.23;100.00
53619;BME280;39505;53.040;18.488;2023-02-10T00:25:03;102625.34;;;-2.24;100.00
53619;BME280;39505;53.040;18.488;2023-02-10T00:25:16;102631.44;;;-2.22;100.00
53619;BME280;39505;53.040;18.488;2023-02-10T00:25:28;102630.56;;;-2.21;100.00
53619;BME280;39505;53.040;18.488;2023-02-10T00:25:41;102630.56;;;-2.23;100.00
53619;BME280;39505;53.040;18.488;2023-02-10T00:25:55;102622.69;;;-2.21;100.00
53619;BME280;39505;53.040;18.488;2023-02-10T00:26:11;102626.19;;;-2.21;100.00
53619;BME280;39505;53.040;18.488;2023-02-10T00:26:24;102632.31;;;-2.20;100.00
53619;BME280;39505;53.040;18.488;2023-02-10T00:26:37;102627.03;;;-2.20;100.00
53619;BME280;39505;53.040;18.488;2023-02-10T00:26:50;102623.53;;;-2.22;100.00
53619;BME280;39505;53.040;18.488;2023-02-10T00:27:03;102627.94;;;-2.20;100.00
53619;BME280;39505;53.040;18.488;2023-02-10T00:27:16;102626.19;;;-2.19;100.00
53619;BME280;39505;53.040;18.488;2023-02-10T00:27:35;102636.69;;;-2.18;100.00
53619;BME280;39505;53.040;18.488;2023-02-10T00:27:48;102627.06;;;-2.17;100.00
53619;BME280;39505;53.040;18.488;2023-02-10T00:28:00;102634.03;;;-2.16;100.00
53619;BME280;39505;53.040;18.488;2023-02-10T00:28:13;102627.06;;;-2.17;100.00
53619;BME280;39505;53.040;18.488;2023-02-10T00:28:26;102636.66;;;-2.16;100.00
53619;BME280;39505;53.040;18.488;2023-02-10T00:28:39;102632.31;;;-2.17;100.00
53619;BME280;39505;53.040;18.488;2023-02-10T00:28:52;102628.78;;;-2.16;100.00
53619;BME280;39505;53.040;18.488;2023-02-10T00:29:04;102626.16;;;-2.16;100.00
53619;BME280;39505;53.040;18.488;2023-02-10T00:29:18;102620.03;;;-2.18;100.00
53619;BME280;39505;53.040;18.488;2023-02-10T00:29:31;102629.69;;;-2.16;100.00
53619;BME280;39505;53.040;18.488;2023-02-10T00:29:44;102630.56;;;-2.15;100.00
53619;BME280;39505;53.040;18.488;2023-02-10T00:29:57;102631.41;;;-2.15;100.00
53619;BME280;39505;53.040;18.488;2023-02-10T00:30:10;102622.66;;;-2.17;100.00
53619;BME280;39505;53.040;18.488;2023-02-10T00:30:23;102635.81;;;-2.15;100.00
53619;BME280;39505;53.040;18.488;2023-02-10T00:30:37;102627.91;;;-2.17;100.00
53619;BME280;39505;53.040;18.488;2023-02-10T00:30:50;102621.81;;;-2.17;100.00
53619;BME280;39505;53.040;18.488;2023-02-10T00:31:05;102625.31;;;-2.15;100.00
53619;BME280;39505;53.040;18.488;2023-02-10T00:31:18;102632.28;;;-2.14;100.00
53619;BME280;39505;53.040;18.488;2023-02-10T00:31:31;102624.41;;;-2.14;100.00
53619;BME280;39505;53.040;18.488;2023-02-10T00:31:44;102629.69;;;-2.16;100.00
53619;BME280;39505;53.040;18.488;2023-02-10T00:31:58;102627.91;;;-2.14;100.00
53619;BME280;39505;53.040;18.488;2023-02-10T00:32:11;102637.53;;;-2.14;100.00
53619;BME280;39505;53.040;18.488;2023-02-10T00:32:23;102624.41;;;-2.14;100.00
53619;BME280;39505;53.040;18.488;2023-02-10T00:32:36;102630.53;;;-2.17;100.00
53619;BME280;39505;53.040;18.488;2023-02-10T00:32:52;102630.56;;;-2.15;100.00
53619;BME280;39505;53.040;18.488;2023-02-10T00:33:05;102627.03;;;-2.14;100.00
53619;BME280;39505;53.040;18.488;2023-02-10T00:33:18;102627.03;;;-2.14;100.00
53619;BME280;39505;53.040;18.488;2023-02-10T00:33:31;102632.28;;;-2.14;100.00
53619;BME280;39505;53.040;18.488;2023-02-10T00:33:44;102627.03;;;-2.14;100.00
53619;BME280;39505;53.040;18.488;2023-02-10T00:33:57;102627.03;;;-2.14;100.00
53619;BME280;39505;53.040;18.488;2023-02-10T00:34:10;102630.53;;;-2.14;100.00
53619;BME280;39505;53.040;18.488;2023-02-10T00:34:23;102628.78;;;-2.15;100.00
53619;BME280;39505;53.040;18.488;2023-02-10T00:34:38;102624.41;;;-2.13;100.00
53619;BME280;39505;53.040;18.488;2023-02-10T00:34:50;102630.53;;;-2.12;100.00
53619;BME280;39505;53.040;18.488;2023-02-10T00:35:03;102625.28;;;-2.12;100.00
53619;BME280;39505;53.040;18.488;2023-02-10T00:35:16;102619.16;;;-2.14;100.00
53619;BME280;39505;53.040;18.488;2023-02-10T00:35:29;102629.66;;;-2.11;100.00
53619;BME280;39505;53.040;18.488;2023-02-10T00:35:42;102629.66;;;-2.11;100.00
53619;BME280;39505;53.040;18.488;2023-02-10T00:35:56;102627.03;;;-2.11;100.00
53619;BME280;39505;53.040;18.488;2023-02-10T00:36:12;102629.63;;;-2.10;100.00
53619;BME280;39505;53.040;18.488;2023-02-10T00:36:24;102628.78;;;-2.10;100.00
53619;BME280;39505;53.040;18.488;2023-02-10T00:36:37;102628.78;;;-2.10;100.00
53619;BME280;39505;53.040;18.488;2023-02-10T00:36:50;102626.16;;;-2.10;100.00
53619;BME280;39505;53.040;18.488;2023-02-10T00:37:02;102625.28;;;-2.11;100.00
53619;BME280;39505;53.040;18.488;2023-02-10T00:37:15;102618.25;;;-2.10;100.00
53619;BME280;39505;53.040;18.488;2023-02-10T00:37:29;102624.38;;;-2.10;100.00
53619;BME280;39505;53.040;18.488;2023-02-10T00:37:42;102620.03;;;-2.09;100.00
53619;BME280;39505;53.040;18.488;2023-02-10T00:37:56;102619.16;;;-2.11;100.00
53619;BME280;39505;53.040;18.488;2023-02-10T00:38:08;102622.66;;;-2.09;100.00
53619;BME280;39505;53.040;18.488;2023-02-10T00:38:21;102625.28;;;-2.09;100.00
53619;BME280;39505;53.040;18.488;2023-02-10T00:38:34;102627.00;;;-2.08;100.00
53619;BME280;39505;53.040;18.488;2023-02-10T00:38:48;102627.00;;;-2.08;100.00
53619;BME280;39505;53.040;18.488;2023-02-10T00:39:00;102621.75;;;-2.08;100.00
53619;BME280;39505;53.040;18.488;2023-02-10T00:39:14;102621.75;;;-2.08;100.00
53619;BME280;39505;53.040;18.488;2023-02-10T00:39:26;102626.16;;;-2.07;100.00
53619;BME280;39505;53.040;18.488;2023-02-10T00:39:39;102616.50;;;-2.06;100.00
53619;BME280;39505;53.040;18.488;2023-02-10T00:39:52;102620.91;;;-2.07;100.00
53619;BME280;39505;53.040;18.488;2023-02-10T00:40:08;102622.63;;;-2.06;100.00
53619;BME280;39505;53.040;18.488;2023-02-10T00:40:21;102621.75;;;-2.08;100.00
53619;BME280;39505;53.040;18.488;2023-02-10T00:40:34;102623.50;;;-2.05;100.00
53619;BME280;39505;53.040;18.488;2023-02-10T00:40:46;102620.88;;;-2.05;100.00
53619;BME280;39505;53.040;18.488;2023-02-10T00:41:02;102620.88;;;-2.05;100.00
53619;BME280;39505;53.040;18.488;2023-02-10T00:41:16;102620.00;;;-2.06;100.00
53619;BME280;39505;53.040;18.488;2023-02-10T00:41:29;102618.25;;;-2.05;100.00
53619;BME280;39505;53.040;18.488;2023-02-10T00:41:42;102621.75;;;-2.06;100.00
53619;BME280;39505;53.040;18.488;2023-02-10T00:41:56;102624.34;;;-2.05;100.00
53619;BME280;39505;53.040;18.488;2023-02-10T00:42:09;102621.75;;;-2.06;100.00
53619;BME280;39505;53.040;18.488;2023-02-10T00:42:21;102615.63;;;-2.05;100.00
53619;BME280;39505;53.040;18.488;2023-02-10T00:42:34;102624.34;;;-2.05;100.00
53619;BME280;39505;53.040;18.488;2023-02-10T00:42:46;102618.25;;;-2.04;100.00
53619;BME280;39505;53.040;18.488;2023-02-10T00:42:59;102617.38;;;-2.04;100.00
53619;BME280;39505;53.040;18.488;2023-02-10T00:43:12;102620.00;;;-2.06;100.00
53619;BME280;39505;53.040;18.488;2023-02-10T00:43:25;102625.22;;;-2.03;100.00
53619;BME280;39505;53.040;18.488;2023-02-10T00:43:38;102622.63;;;-2.04;100.00
53619;BME280;39505;53.040;18.488;2023-02-10T00:43:52;102627.88;;;-2.04;100.00
53619;BME280;39505;53.040;18.488;2023-02-10T00:44:05;102626.13;;;-2.02;100.00
53619;BME280;39505;53.040;18.488;2023-02-10T00:44:17;102626.13;;;-2.02;100.00
53619;BME280;39505;53.040;18.488;2023-02-10T00:44:30;102625.22;;;-2.03;100.00
53619;BME280;39505;53.040;18.488;2023-02-10T00:44:43;102623.50;;;-2.05;100.00
53619;BME280;39505;53.040;18.488;2023-02-10T00:44:57;102620.88;;;-2.05;100.00
53619;BME280;39505;53.040;18.488;2023-02-10T00:45:10;102623.50;;;-2.04;100.00
53619;BME280;39505;53.040;18.488;2023-02-10T00:45:22;102628.75;;;-2.04;100.00
53619;BME280;39505;53.040;18.488;2023-02-10T00:45:35;102627.00;;;-2.05;100.00
53619;BME280;39505;53.040;18.488;2023-02-10T00:45:48;102625.22;;;-2.03;100.00
53619;BME280;39505;53.040;18.488;2023-02-10T00:46:02;102625.22;;;-2.03;100.00
53619;BME280;39505;53.040;18.488;2023-02-10T00:46:18;102631.38;;;-2.02;100.00
53619;BME280;39505;53.040;18.488;2023-02-10T00:46:31;102628.75;;;-2.02;100.00
53619;BME280;39505;53.040;18.488;2023-02-10T00:46:44;102627.00;;;-2.03;100.00
53619;BME280;39505;53.040;18.488;2023-02-10T00:46:57;102629.63;;;-2.02;100.00
53619;BME280;39505;53.040;18.488;2023-02-10T00:47:09;102625.22;;;-2.03;100.00
53619;BME280;39505;53.040;18.488;2023-02-10T00:47:22;102625.22;;;-2.03;100.00
53619;BME280;39505;53.040;18.488;2023-02-10T00:47:38;102626.13;;;-2.02;100.00
53619;BME280;39505;53.040;18.488;2023-02-10T00:47:51;102636.66;;;-2.02;100.00
53619;BME280;39505;53.040;18.488;2023-02-10T00:48:03;102623.50;;;-2.02;100.00
53619;BME280;39505;53.040;18.488;2023-02-10T00:48:16;102630.50;;;-2.01;100.00
53619;BME280;39505;53.040;18.488;2023-02-10T00:48:29;102622.59;;;-2.01;100.00
53619;BME280;39505;53.040;18.488;2023-02-10T00:48:42;102621.75;;;-2.02;100.00
53619;BME280;39505;53.040;18.488;2023-02-10T00:48:55;102622.63;;;-2.04;100.00
53619;BME280;39505;53.040;18.488;2023-02-10T00:49:09;102625.22;;;-2.03;100.00
53619;BME280;39505;53.040;18.488;2023-02-10T00:49:23;102630.50;;;-2.03;100.00
53619;BME280;39505;53.040;18.488;2023-02-10T00:49:36;102619.97;;;-2.03;100.00
53619;BME280;39505;53.040;18.488;2023-02-10T00:49:49;102630.50;;;-2.03;100.00
53619;BME280;39505;53.040;18.488;2023-02-10T00:50:02;102621.72;;;-2.03;100.00
53619;BME280;39505;53.040;18.488;2023-02-10T00:50:15;102632.25;;;-2.02;100.00
53619;BME280;39505;53.040;18.488;2023-02-10T00:50:28;102625.22;;;-2.03;100.00
53619;BME280;39505;53.040;18.488;2023-02-10T00:50:41;102626.13;;;-2.04;100.00
53619;BME280;39505;53.040;18.488;2023-02-10T00:50:54;102627.00;;;-2.05;100.00
53619;BME280;39505;53.040;18.488;2023-02-10T00:51:07;102625.22;;;-2.03;100.00
53619;BME280;39505;53.040;18.488;2023-02-10T00:51:20;102624.38;;;-2.03;100.00
53619;BME280;39505;53.040;18.488;2023-02-10T00:51:32;102629.63;;;-2.03;100.00
53619;BME280;39505;53.040;18.488;2023-02-10T00:51:46;102625.22;;;-2.03;100.00
53619;BME280;39505;53.040;18.488;2023-02-10T00:51:59;102616.47;;;-2.05;100.00
53619;BME280;39505;53.040;18.488;2023-02-10T00:52:11;102615.59;;;-2.01;100.00
53619;BME280;39505;53.040;18.488;2023-02-10T00:52:24;102622.59;;;-2.01;100.00
53619;BME280;39505;53.040;18.488;2023-02-10T00:52:37;102624.38;;;-2.00;100.00
53619;BME280;39505;53.040;18.488;2023-02-10T00:52:50;102621.75;;;-2.02;100.00
53619;BME280;39505;53.040;18.488;2023-02-10T00:53:05;102619.97;;;-2.01;100.00
53619;BME280;39505;53.040;18.488;2023-02-10T00:53:18;102612.09;;;-2.01;100.00
53619;BME280;39505;53.040;18.488;2023-02-10T00:53:32;102615.63;;;-2.02;100.00
53619;BME280;39505;53.040;18.488;2023-02-10T00:53:45;102611.22;;;-2.05;100.00
53619;BME280;39505;53.040;18.488;2023-02-10T00:54:00;102617.34;;;-2.01;100.00
53619;BME280;39505;53.040;18.488;2023-02-10T00:54:13;102617.34;;;-2.01;100.00
53619;BME280;39505;53.040;18.488;2023-02-10T00:54:27;102611.22;;;-2.02;100.00
53619;BME280;39505;53.040;18.488;2023-02-10T00:54:39;102620.84;;;-2.01;100.00
53619;BME280;39505;53.040;18.488;2023-02-10T00:54:52;102607.69;;;-2.01;100.00
53619;BME280;39505;53.040;18.488;2023-02-10T00:55:05;102615.59;;;-2.01;100.00
53619;BME280;39505;53.040;18.488;2023-02-10T00:55:18;102612.09;;;-2.01;100.00
53619;BME280;39505;53.040;18.488;2023-02-10T00:55:31;102618.22;;;-2.01;100.00
53619;BME280;39505;53.040;18.488;2023-02-10T00:55:44;102615.59;;;-2.01;100.00
53619;BME280;39505;53.040;18.488;2023-02-10T00:55:58;102618.22;;;-2.01;100.00
53619;BME280;39505;53.040;18.488;2023-02-10T00:56:11;102612.97;;;-2.01;100.00
53619;BME280;39505;53.040;18.488;2023-02-10T00:56:23;102616.47;;;-1.99;100.00
53619;BME280;39505;53.040;18.488;2023-02-10T00:56:36;102615.59;;;-1.99;100.00
53619;BME280;39505;53.040;18.488;2023-02-10T00:56:49;102612.97;;;-1.98;100.00
53619;BME280;39505;53.040;18.488;2023-02-10T00:57:03;102613.81;;;-1.99;100.00
53619;BME280;39505;53.040;18.488;2023-02-10T00:57:17;102619.94;;;-1.97;100.00
53619;BME280;39505;53.040;18.488;2023-02-10T00:57:30;102609.44;;;-1.97;100.00
53619;BME280;39505;53.040;18.488;2023-02-10T00:57:42;102611.19;;;-1.97;100.00
53619;BME280;39505;53.040;18.488;2023-02-10T00:57:55;102614.69;;;-1.95;100.00
53619;BME280;39505;53.040;18.488;2023-02-10T00:58:08;102606.81;;;-1.95;100.00
53619;BME280;39505;53.040;18.488;2023-02-10T00:58:20;102615.56;;;-1.95;100.00
53619;BME280;39505;53.040;18.488;2023-02-10T00:58:33;102612.94;;;-1.93;100.00
53619;BME280;39505;53.040;18.488;2023-02-10T00:58:46;102612.06;;;-1.94;100.00
53619;BME280;39505;53.040;18.488;2023-02-10T00:59:00;102606.81;;;-1.95;100.00
53619;BME280;39505;53.040;18.488;2023-02-10T00:59:13;102612.03;;;-1.92;100.00
53619;BME280;39505;53.040;18.488;2023-02-10T00:59:27;102608.53;;;-1.93;100.00
53619;BME280;39505;53.040;18.488;2023-02-10T00:59:40;102609.41;;;-1.91;100.00
53619;BME280;39505;53.040;18.488;2023-02-10T00:59:53;102607.69;;;-1.93;100.00
53619;BME280;39505;53.040;18.488;2023-02-10T01:00:07;102616.44;;;-1.91;100.00
53619;BME280;39505;53.040;18.488;2023-02-10T01:00:21;102613.81;;;-1.91;100.00
53619;BME280;39505;53.040;18.488;2023-02-10T01:00:34;102619.06;;;-1.91;100.00
53619;BME280;39505;53.040;18.488;2023-02-10T01:00:47;102619.06;;;-1.91;100.00
53619;BME280;39505;53.040;18.488;2023-02-10T01:01:00;102614.69;;;-1.91;100.00
53619;BME280;39505;53.040;18.488;2023-02-10T01:01:13;102612.94;;;-1.92;100.00
53619;BME280;39505;53.040;18.488;2023-02-10T01:01:26;102619.06;;;-1.91;100.00
53619;BME280;39505;53.040;18.488;2023-02-10T01:01:39;102618.16;;;-1.90;100.00
53619;BME280;39505;53.040;18.488;2023-02-10T01:01:53;102612.91;;;-1.90;100.00
53619;BME280;39505;53.040;18.488;2023-02-10T01:02:06;102612.91;;;-1.90;100.00
53619;BME280;39505;53.040;18.488;2023-02-10T01:02:18;102612.91;;;-1.90;100.00
53619;BME280;39505;53.040;18.488;2023-02-10T01:02:31;102610.28;;;-1.90;100.00
53619;BME280;39505;53.040;18.488;2023-02-10T01:02:44;102612.03;;;-1.91;100.00
53619;BME280;39505;53.040;18.488;2023-02-10T01:02:57;102613.81;;;-1.90;100.00
53619;BME280;39505;53.040;18.488;2023-02-10T01:03:09;102610.28;;;-1.90;100.00
53619;BME280;39505;53.040;18.488;2023-02-10T01:03:23;102605.03;;;-1.88;100.00
53619;BME280;39505;53.040;18.488;2023-02-10T01:03:37;102601.53;;;-1.89;100.00
53619;BME280;39505;53.040;18.488;2023-02-10T01:03:50;102611.19;;;-1.90;100.00
53619;BME280;39505;53.040;18.488;2023-02-10T01:04:03;102612.91;;;-1.88;100.00
53619;BME280;39505;53.040;18.488;2023-02-10T01:04:16;102605.91;;;-1.88;100.00
53619;BME280;39505;53.040;18.488;2023-02-10T01:04:29;102612.91;;;-1.88;100.00
53619;BME280;39505;53.040;18.488;2023-02-10T01:04:42;102612.91;;;-1.87;100.00
53619;BME280;39505;53.040;18.488;2023-02-10T01:04:54;102601.50;;;-1.87;100.00
53619;BME280;39505;53.040;18.488;2023-02-10T01:05:07;102611.16;;;-1.88;100.00
53619;BME280;39505;53.040;18.488;2023-02-10T01:05:20;102609.41;;;-1.89;100.00
53619;BME280;39505;53.040;18.488;2023-02-10T01:05:33;102608.56;;;-1.90;100.00
53619;BME280;39505;53.040;18.488;2023-02-10T01:05:46;102609.38;;;-1.87;100.00
53619;BME280;39505;53.040;18.488;2023-02-10T01:05:59;102604.13;;;-1.87;100.00
53619;BME280;39505;53.040;18.488;2023-02-10T01:06:13;102610.28;;;-1.88;100.00
53619;BME280;39505;53.040;18.488;2023-02-10T01:06:27;102604.13;;;-1.87;100.00
53619;BME280;39505;53.040;18.488;2023-02-10T01:06:39;102609.38;;;-1.87;100.00
53619;BME280;39505;53.040;18.488;2023-02-10T01:06:52;102608.53;;;-1.86;100.00
53619;BME280;39505;53.040;18.488;2023-02-10T01:07:05;102611.16;;;-1.86;100.00
53619;BME280;39505;53.040;18.488;2023-02-10T01:07:17;102611.16;;;-1.86;100.00
53619;BME280;39505;53.040;18.488;2023-02-10T01:07:30;102604.13;;;-1.87;100.00
53619;BME280;39505;53.040;18.488;2023-02-10T01:07:44;102611.13;;;-1.83;100.00
53619;BME280;39505;53.040;18.488;2023-02-10T01:07:56;102611.13;;;-1.83;100.00
53619;BME280;39505;53.040;18.488;2023-02-10T01:08:11;102605.00;;;-1.84;100.00
53619;BME280;39505;53.040;18.488;2023-02-10T01:08:23;102605.00;;;-1.82;100.00